createdAt,value
2019-04-20T20:25:57.157Z,4.53
2019-04-20T20:28:45.522Z,3.87
2019-04-20T20:45:29.514Z,4.27
2019-04-20T20:48:15.437Z,4.27
2019-04-20T20:58:18.313Z,3.87
2019-04-20T21:32:23.583Z,3.60
2019-04-20T21:35:03.055Z,3.20
2019-04-20T21:37:37.051Z,3.20
2019-04-20T21:40:21.650Z,3.23
2019-04-20T21:43:13.174Z,3.03
2019-04-20T21:46:08.975Z,3.47
2019-04-20T21:49:04.249Z,3.60
2019-04-20T21:51:37.285Z,3.17
2019-04-20T21:57:31.330Z,3.07
2019-04-20T22:00:25.004Z,3.17
2019-04-20T22:02:56.987Z,2.80
2019-04-20T22:05:40.492Z,2.87
2019-04-20T22:08:16.062Z,3.07
2019-04-20T22:10:53.516Z,2.50
2019-04-20T22:13:33.399Z,3.40
2019-04-20T22:16:08.794Z,2.83
2019-04-20T22:18:54.418Z,2.90
2019-04-20T22:21:25.431Z,3.30
2019-04-20T22:24:06.805Z,3.37
2019-04-20T22:26:39.413Z,3.00
2019-04-20T22:29:12.027Z,3.00
2019-04-20T22:31:57.389Z,3.10
2019-04-20T22:34:29.700Z,3.27
2019-04-20T22:37:04.388Z,3.50
2019-04-20T22:39:52.333Z,3.60
2019-04-20T22:42:37.846Z,3.93
2019-04-20T22:45:13.348Z,2.60
2019-04-20T22:47:55.040Z,2.90
2019-04-20T22:50:42.281Z,2.70
2019-04-20T22:53:26.111Z,2.90
2019-04-20T22:56:12.376Z,3.00
2019-04-20T22:58:40.400Z,2.90
2019-04-20T23:01:19.332Z,2.67
2019-04-20T23:03:45.015Z,2.87
2019-04-20T23:06:25.372Z,3.27
2019-04-20T23:09:10.223Z,2.67
2019-04-20T23:11:42.103Z,3.00
2019-04-20T23:14:20.300Z,2.87
2019-04-20T23:17:12.344Z,2.53
2019-04-20T23:20:19.786Z,3.07
2019-04-20T23:26:32.523Z,3.00
2019-04-20T23:29:41.493Z,2.93
2019-04-20T23:32:39.826Z,3.27
2019-04-20T23:35:18.525Z,2.47
2019-04-20T23:38:11.028Z,2.90
2019-04-20T23:40:53.908Z,2.83
2019-04-20T23:43:54.923Z,2.70
2019-04-20T23:47:18.089Z,2.53
2019-04-20T23:50:12.343Z,2.50
2019-04-20T23:52:59.531Z,2.60
2019-04-20T23:55:43.693Z,2.90
2019-04-20T23:58:39.820Z,2.40
